Aérodrome :
LOGIN :

S'inscrire | Disclaimer

   EN    FR    IT 

 










Légende :    VFR   VFR Marginal   IFR   IFR Intensif   IFR Très Intensif
Visi : 
Plafond : 
>= 8 km
>= 3000ft
5 à 8 km
1000 à 3000 ft
1500m à 5 km
500 à 1000 ft
800 à 1500m
200 à 500 ft
< 800m
< 200 ft
Symboles :   Orages  Brouillard  Fortes neiges  Fortes précipitations  Vent > 20 kt
SIGMETs :   Divers  Orages  Givrage  Turbulence  Onde Orograph.  Cendres Volcan.







- Altitude de l'aérodrome : 3 ft
- Code IATA : LWR


EHLW - Leuuwarden Air Base

DERNIER METAR :
  • 172125Z AUTO 36013KT 9999 FEW018CB 03/M02 Q1009 BLU

METARs EXPIRÉS :
  • 172056Z AUTO 35014KT 300V010 9999 -RA FEW015CB SCT041 BKN048 02/M01 Q1009 BLU
  • 172055Z AUTO 35015KT 300V010 9999 -RASN FEW015CB SCT021 BKN030 02/M02 Q1009 WHT
  • 172044Z AUTO 35022KT 320V020 9999 -SN FEW015CB SCT024 BKN028 02/M02 Q1009 WHT
  • 172033Z AUTO 36017KT 9999 FEW020CB SCT067 03/M02 Q1008 BLU
  • 172025Z AUTO 35015KT 320V030 9999 FEW020CB 03/M02 Q1008 BLU 29010KT 9999 FEW015 SCT025 TEMPO 31025G35KT 4500 SHRASN FEW008 SCT015CB BKN020 RMK R23
  • 172017Z AUTO 34014KT 310V010 9999 FEW016CB 03/M02 Q1008 BLU 29010KT 9999 FEW015 SCT025 TEMPO 31025G35KT 4500 SHRASN FEW008 SCT015CB BKN020 RMK R23
  • 172001Z AUTO 34017KT 310V010 9999 FEW017CB SCT039 BKN094 03/M01 Q1007 BLU 29010KT 9999 FEW015 SCT025 TEMPO 31025G35KT 4500 SHRASN FEW008 SCT015CB BKN020 RMK R23
  • 171955Z AUTO 32021KT 280V010 9999 -SHRA FEW015CB SCT034 BKN038 03/00 Q1007 RERA BLU 29010KT 9999 FEW015 SCT025 TEMPO 31025G35KT 4500 SHRASN FEW008 SCT015CB BKN020 RMK R23
  • 171925Z AUTO 32013KT 300V360 9999 FEW097 03/M01 Q1007 BLU 29010KT 9999 FEW015 SCT025 TEMPO 31025G35KT 4500 SHRASN FEW008 SCT015CB BKN020 RMK R23
  • 171855Z AUTO 33019G29KT 290V360 9999 -RA FEW015CB BKN031 BKN036 03/00 Q1006 BLU 29010KT 9999 FEW015 SCT025 TEMPO 31025G35KT 4500 SHRASN FEW008 SCT015CB BKN020 RMK R23

TAF TAF EHLW
Valide du 17 à 22h jusqu'au 18 à 10h UTC


172105Z 1722/1810 35013KT 9999 FEW040
BECMG 1800/1803 27007KT
Pas de NOTAMs connus pour ce terrain.



MET'MAP, la Météo Aéronautique d'un coup d'oeil ! - Copyright ORBIFLY Décembre 2007 - Disclaimer

ORBIFLY MET'MAP TEAM :

Programmation & Développement : Alexandra Zaïnal
Conception & Développement : Baudouin d'Aumeries
Co-Programmation & Développement : Marc-Olivier Méhu
Soutien technique & logistique : Manuel Goepfert

Contact : metmap@orbifly.com




SOURCES & CREDITS :

   NOAA